createdAt,value
2023-04-29T00:03:48.399Z,65.44
2023-04-29T00:08:53.486Z,65.14
2023-04-29T00:13:57.018Z,65.92
2023-04-29T00:19:00.944Z,65.48
2023-04-29T00:24:06.232Z,65.07
2023-04-29T00:29:09.836Z,65.50
2023-04-29T00:34:13.333Z,65.30
2023-04-29T00:39:18.226Z,64.88
2023-04-29T00:44:21.414Z,65.12
2023-04-29T00:49:24.847Z,65.28
2023-04-29T00:54:29.960Z,65.42
2023-04-29T00:59:33.518Z,65.33
2023-04-29T01:04:37.192Z,65.07
2023-04-29T01:09:54.953Z,64.73
2023-04-29T01:15:07.076Z,65.40
2023-04-29T01:20:11.778Z,65.07
2023-04-29T01:25:16.794Z,65.19
2023-04-29T01:30:30.213Z,65.37
2023-04-29T01:35:47.606Z,64.51
2023-04-29T01:41:01.006Z,65.18
2023-04-29T01:46:06.116Z,65.51
2023-04-29T01:51:09.631Z,65.35
2023-04-29T01:56:14.495Z,65.44
2023-04-29T02:01:17.791Z,64.60
2023-04-29T02:06:21.266Z,65.06
2023-04-29T02:11:26.295Z,64.28
2023-04-29T02:16:29.855Z,64.71
2023-04-29T02:21:35.330Z,65.25
2023-04-29T02:26:40.331Z,64.40
2023-04-29T02:31:43.910Z,65.12
2023-04-29T02:36:47.496Z,64.76
2023-04-29T02:41:55.834Z,64.21
2023-04-29T02:46:59.420Z,64.62
2023-04-29T02:52:02.887Z,64.04
2023-04-29T02:57:08.178Z,64.45
2023-04-29T03:02:11.881Z,64.54
2023-04-29T03:07:17.577Z,64.15
2023-04-29T03:12:22.532Z,63.68
2023-04-29T03:17:25.764Z,64.88
2023-04-29T03:22:29.197Z,64.20
2023-04-29T03:27:34.177Z,64.37
2023-04-29T03:32:37.693Z,64.06
2023-04-29T03:37:44.527Z,64.08
2023-04-29T03:42:49.658Z,63.63
2023-04-29T03:47:53.634Z,63.21
2023-04-29T03:52:57.989Z,63.58
2023-04-29T03:58:03.081Z,63.42
2023-04-29T04:03:06.707Z,63.13
2023-04-29T04:08:11.074Z,62.72
2023-04-29T04:13:16.049Z,63.59
2023-04-29T04:18:19.711Z,63.32
2023-04-29T04:23:23.241Z,62.37
2023-04-29T04:28:28.121Z,61.54
2023-04-29T04:33:31.516Z,62.03
2023-04-29T04:38:35.545Z,61.51
2023-04-29T04:43:41.682Z,60.90
2023-04-29T04:48:45.216Z,60.47
2023-04-29T04:53:48.797Z,61.09
2023-04-29T04:58:53.693Z,60.78
2023-04-29T05:03:57.648Z,60.47
2023-04-29T05:09:01.260Z,60.59
2023-04-29T05:14:06.550Z,59.28
2023-04-29T05:19:10.068Z,59.15
2023-04-29T05:24:13.545Z,59.04
2023-04-29T05:29:18.564Z,57.75
2023-04-29T05:34:22.162Z,58.00
2023-04-29T05:39:26.957Z,57.88
2023-04-29T05:44:31.850Z,57.89
2023-04-29T05:49:35.115Z,57.43
2023-04-29T05:54:38.675Z,56.77
2023-04-29T05:59:43.559Z,56.37
2023-04-29T06:04:47.983Z,56.31
2023-04-29T06:09:51.995Z,55.83
2023-04-29T06:14:57.130Z,53.49
2023-04-29T06:20:00.603Z,52.46
2023-04-29T06:25:04.039Z,53.28
2023-04-29T06:30:10.465Z,52.38
2023-04-29T06:35:13.960Z,52.10
2023-04-29T06:40:17.495Z,52.36
2023-04-29T06:45:23.853Z,52.13
2023-04-29T06:50:28.198Z,51.78
2023-04-29T06:55:31.731Z,50.79
2023-04-29T07:00:36.934Z,50.80
2023-04-29T07:05:42.046Z,51.08
2023-04-29T07:10:45.570Z,50.59
2023-04-29T07:15:50.564Z,45.04
2023-04-29T07:20:55.945Z,39.01
2023-04-29T07:25:59.396Z,36.61
2023-04-29T07:31:04.506Z,35.95
2023-04-29T07:36:09.213Z,33.85
2023-04-29T07:41:12.764Z,34.31
2023-04-29T07:46:18.438Z,29.87
2023-04-29T07:51:21.978Z,27.97
2023-04-29T07:56:26.195Z,28.32
2023-04-29T08:01:31.070Z,30.73
2023-04-29T08:06:34.717Z,34.03
2023-04-29T08:11:40.078Z,30.13
2023-04-29T08:16:44.983Z,26.05
2023-04-29T08:21:48.494Z,25.08
2023-04-29T08:26:52.612Z,27.89
2023-04-29T08:31:57.639Z,29.56
2023-04-29T08:37:01.399Z,30.09
2023-04-29T08:42:10.062Z,28.17
2023-04-29T08:47:16.536Z,28.22
2023-04-29T08:52:19.988Z,27.89
2023-04-29T08:57:26.412Z,28.89
2023-04-29T09:02:31.438Z,28.71
2023-04-29T09:07:36.293Z,29.12
2023-04-29T09:12:39.951Z,30.13
2023-04-29T09:17:46.668Z,30.94
2023-04-29T09:22:50.650Z,30.29
2023-04-29T09:27:54.663Z,30.59
2023-04-29T09:33:10.202Z,31.30
2023-04-29T09:38:15.602Z,32.53
2023-04-29T09:43:21.645Z,32.83
2023-04-29T09:48:35.630Z,32.34
2023-04-29T09:53:39.199Z,30.03
2023-04-29T09:58:42.708Z,29.93
2023-04-29T10:03:49.992Z,27.53
2023-04-29T10:08:53.687Z,28.10
2023-04-29T10:13:57.998Z,27.96
2023-04-29T10:19:08.524Z,28.50
2023-04-29T10:24:13.949Z,27.48
2023-04-29T10:29:19.734Z,27.67
2023-04-29T10:34:25.930Z,27.61
2023-04-29T10:39:37.109Z,27.38
2023-04-29T10:45:20.123Z,27.53
2023-04-29T10:50:25.145Z,27.62
2023-04-29T10:55:28.846Z,26.26
2023-04-29T11:00:33.449Z,26.48
2023-04-29T11:05:38.538Z,27.76
2023-04-29T11:10:44.008Z,26.51
2023-04-29T11:15:47.614Z,26.87
2023-04-29T11:21:20.047Z,26.41
2023-04-29T11:26:25.237Z,26.79
2023-04-29T11:31:30.376Z,26.18
2023-04-29T11:36:35.918Z,26.82
2023-04-29T11:41:40.003Z,27.78
2023-04-29T11:46:43.485Z,27.47
2023-04-29T11:51:48.483Z,26.84
2023-04-29T11:56:54.614Z,27.57
2023-04-29T12:01:59.866Z,26.70
2023-04-29T12:07:06.125Z,26.39
2023-04-29T12:12:09.822Z,25.91
2023-04-29T12:17:13.828Z,25.85
2023-04-29T12:22:20.865Z,25.95
2023-04-29T12:27:26.712Z,25.50
2023-04-29T12:32:30.260Z,25.00
2023-04-29T12:37:35.429Z,25.69
2023-04-29T12:42:41.557Z,26.16
2023-04-29T12:47:46.739Z,25.63
2023-04-29T12:52:51.994Z,26.46
2023-04-29T12:57:55.508Z,26.00
2023-04-29T13:02:59.348Z,26.97
2023-04-29T13:08:06.076Z,26.73
2023-04-29T13:13:09.789Z,27.40
2023-04-29T13:18:13.308Z,27.58
2023-04-29T13:23:18.279Z,26.99
2023-04-29T13:28:22.398Z,27.45
2023-04-29T13:33:25.929Z,27.94
2023-04-29T13:38:30.951Z,27.85
2023-04-29T13:43:38.439Z,26.86
2023-04-29T13:49:17.297Z,26.91
2023-04-29T13:59:40.010Z,27.73
2023-04-29T14:04:39.522Z,28.12
2023-04-29T14:09:44.652Z,28.50
2023-04-29T14:14:48.112Z,28.32
2023-04-29T14:19:51.746Z,29.03
2023-04-29T14:24:56.831Z,28.86
2023-04-29T14:30:00.371Z,28.64
2023-04-29T14:35:03.890Z,28.43
2023-04-29T14:40:10.956Z,28.78
2023-04-29T14:45:14.502Z,28.75
2023-04-29T14:50:18.488Z,28.22
2023-04-29T14:55:25.996Z,27.52
2023-04-29T15:00:29.444Z,27.75
2023-04-29T15:05:33.100Z,27.42
2023-04-29T15:10:38.097Z,27.38
2023-04-29T15:15:41.651Z,27.11
2023-04-29T15:20:45.185Z,26.94
2023-04-29T15:25:50.166Z,26.90
2023-04-29T15:30:53.733Z,27.11
2023-04-29T15:35:57.995Z,28.19
2023-04-29T15:41:03.735Z,28.82
2023-04-29T15:46:07.462Z,29.75
2023-04-29T15:51:13.974Z,30.46
2023-04-29T15:56:19.142Z,30.84
2023-04-29T16:01:22.678Z,30.47
2023-04-29T16:06:27.751Z,30.97
2023-04-29T16:11:32.771Z,30.57
2023-04-29T16:16:36.287Z,30.89
2023-04-29T16:21:40.007Z,31.74
2023-04-29T16:26:44.996Z,31.95
2023-04-29T16:31:48.609Z,32.71
2023-04-29T16:36:52.767Z,33.17
2023-04-29T16:41:57.761Z,33.99
2023-04-29T16:47:01.329Z,33.83
2023-04-29T16:52:05.810Z,34.00
2023-04-29T16:57:10.860Z,35.00
2023-04-29T17:02:14.428Z,36.04
2023-04-29T17:07:19.595Z,36.38
2023-04-29T17:12:24.500Z,37.81
2023-04-29T17:17:28.003Z,39.40
2023-04-29T17:22:32.897Z,40.31
2023-04-29T17:27:37.590Z,38.99
2023-04-29T17:32:41.512Z,41.33
2023-04-29T17:37:45.100Z,41.91
2023-04-29T17:42:50.500Z,42.56
2023-04-29T17:47:54.300Z,43.46
2023-04-29T17:52:57.928Z,43.88
2023-04-29T17:58:02.785Z,44.67
2023-04-29T18:03:06.482Z,44.21
2023-04-29T18:08:10.009Z,44.98
2023-04-29T18:13:14.974Z,46.26
2023-04-29T18:18:18.157Z,44.71
2023-04-29T18:23:22.636Z,46.75
2023-04-29T18:28:29.133Z,46.50
2023-04-29T18:33:32.586Z,48.24
2023-04-29T18:38:36.270Z,47.88
2023-04-29T18:43:41.301Z,48.68
2023-04-29T18:48:44.898Z,48.71
2023-04-29T18:53:48.473Z,48.80
2023-04-29T18:58:53.531Z,49.31
2023-04-29T19:03:57.710Z,49.49
2023-04-29T19:09:01.448Z,50.21
2023-04-29T19:14:06.663Z,51.09
2023-04-29T19:19:10.487Z,50.71
2023-04-29T19:24:14.011Z,51.48
2023-04-29T19:29:19.073Z,51.49
2023-04-29T19:34:22.547Z,51.90
2023-04-29T19:39:26.969Z,51.73
2023-04-29T19:44:32.117Z,51.31
2023-04-29T19:49:35.702Z,51.27
2023-04-29T19:54:41.003Z,51.38
2023-04-29T19:59:46.132Z,52.35
2023-04-29T20:04:49.674Z,51.87
2023-04-29T20:09:53.552Z,52.31
2023-04-29T20:14:59.003Z,52.11
2023-04-29T20:20:02.628Z,52.55
2023-04-29T20:25:08.069Z,52.71
2023-04-29T20:30:13.372Z,53.14
2023-04-29T20:35:17.028Z,53.08
2023-04-29T20:40:20.918Z,52.90
2023-04-29T20:45:26.130Z,53.63
2023-04-29T20:50:29.674Z,53.95
2023-04-29T20:55:33.275Z,54.03
2023-04-29T21:00:38.341Z,54.32
2023-04-29T21:05:41.993Z,54.75
2023-04-29T21:10:45.696Z,55.10
2023-04-29T21:15:51.065Z,55.19
2023-04-29T21:20:54.705Z,55.47
2023-04-29T21:25:58.148Z,55.44
2023-04-29T21:31:03.117Z,55.50
2023-04-29T21:36:06.814Z,55.57
2023-04-29T21:41:19.441Z,55.86
2023-04-29T21:46:25.017Z,56.02
2023-04-29T21:51:29.686Z,56.20
2023-04-29T21:56:33.286Z,56.01
2023-04-29T22:01:48.600Z,56.18
2023-04-29T22:06:52.387Z,55.74
2023-04-29T22:11:55.876Z,56.67
2023-04-29T22:17:00.765Z,56.67
2023-04-29T22:22:04.086Z,56.56
2023-04-29T22:27:07.502Z,57.40
2023-04-29T22:32:12.498Z,57.44
2023-04-29T22:37:16.256Z,57.18
2023-04-29T22:42:19.758Z,57.47
2023-04-29T22:47:24.785Z,57.64
2023-04-29T22:52:28.324Z,57.75
2023-04-29T22:57:31.898Z,57.68
2023-04-29T23:02:36.778Z,58.29
2023-04-29T23:07:39.953Z,57.33
2023-04-29T23:12:43.392Z,57.46
2023-04-29T23:17:48.312Z,58.09
2023-04-29T23:22:51.604Z,58.09
2023-04-29T23:27:55.802Z,57.92
2023-04-29T23:33:00.894Z,58.24
2023-04-29T23:38:04.650Z,58.25
2023-04-29T23:43:08.145Z,58.18
2023-04-29T23:48:13.491Z,58.46
2023-04-29T23:53:17.153Z,58.32
2023-04-29T23:58:20.639Z,58.50
